sensor_id;sensor_type;location;lat;lon;timestamp;P1;durP1;ratioP1;P2;durP2;ratioP2
17449;SDS011;8842;51.244;7.102;2023-06-22T00:01:30;9.90;;;9.40;;
17449;SDS011;8842;51.244;7.102;2023-06-22T00:06:42;10.38;;;9.78;;
17449;SDS011;8842;51.244;7.102;2023-06-22T00:11:46;10.10;;;9.50;;
17449;SDS011;8842;51.244;7.102;2023-06-22T00:16:50;9.90;;;9.40;;
17449;SDS011;8842;51.244;7.102;2023-06-22T00:21:56;9.80;;;9.30;;
17449;SDS011;8842;51.244;7.102;2023-06-22T00:27:03;9.50;;;9.00;;
17449;SDS011;8842;51.244;7.102;2023-06-22T00:32:15;9.53;;;9.03;;
17449;SDS011;8842;51.244;7.102;2023-06-22T00:42:32;9.97;;;9.47;;
17449;SDS011;8842;51.244;7.102;2023-06-22T00:52:47;9.70;;;9.13;;
17449;SDS011;8842;51.244;7.102;2023-06-22T00:57:53;9.60;;;9.10;;
17449;SDS011;8842;51.244;7.102;2023-06-22T01:08:15;9.75;;;9.25;;
17449;SDS011;8842;51.244;7.102;2023-06-22T01:13:27;9.67;;;9.17;;
17449;SDS011;8842;51.244;7.102;2023-06-22T01:18:35;10.23;;;9.67;;
17449;SDS011;8842;51.244;7.102;2023-06-22T01:23:51;9.73;;;9.23;;
17449;SDS011;8842;51.244;7.102;2023-06-22T01:29:02;10.03;;;9.53;;
17449;SDS011;8842;51.244;7.102;2023-06-22T01:39:23;9.60;;;9.10;;
17449;SDS011;8842;51.244;7.102;2023-06-22T01:44:28;9.60;;;9.10;;
17449;SDS011;8842;51.244;7.102;2023-06-22T01:49:40;9.40;;;8.90;;
17449;SDS011;8842;51.244;7.102;2023-06-22T01:54:44;9.93;;;9.37;;
17449;SDS011;8842;51.244;7.102;2023-06-22T01:59:53;9.87;;;9.37;;
17449;SDS011;8842;51.244;7.102;2023-06-22T02:05:03;9.77;;;9.27;;
17449;SDS011;8842;51.244;7.102;2023-06-22T02:10:12;9.70;;;9.20;;
17449;SDS011;8842;51.244;7.102;2023-06-22T02:15:25;10.40;;;9.60;;
17449;SDS011;8842;51.244;7.102;2023-06-22T02:20:29;10.00;;;9.50;;
17449;SDS011;8842;51.244;7.102;2023-06-22T02:25:41;9.70;;;9.20;;
17449;SDS011;8842;51.244;7.102;2023-06-22T02:30:47;10.00;;;9.50;;
17449;SDS011;8842;51.244;7.102;2023-06-22T02:35:58;9.77;;;9.27;;
17449;SDS011;8842;51.244;7.102;2023-06-22T02:41:02;10.20;;;9.60;;
17449;SDS011;8842;51.244;7.102;2023-06-22T02:51:17;9.70;;;9.20;;
17449;SDS011;8842;51.244;7.102;2023-06-22T02:56:22;9.53;;;9.03;;
17449;SDS011;8842;51.244;7.102;2023-06-22T03:01:33;9.40;;;8.90;;
17449;SDS011;8842;51.244;7.102;2023-06-22T03:06:45;10.13;;;9.50;;
17449;SDS011;8842;51.244;7.102;2023-06-22T03:11:52;9.80;;;9.30;;
17449;SDS011;8842;51.244;7.102;2023-06-22T03:16:56;9.60;;;9.10;;
17449;SDS011;8842;51.244;7.102;2023-06-22T03:22:08;10.23;;;9.73;;
17449;SDS011;8842;51.244;7.102;2023-06-22T03:27:12;10.37;;;9.77;;
17449;SDS011;8842;51.244;7.102;2023-06-22T03:32:24;10.10;;;9.60;;
17449;SDS011;8842;51.244;7.102;2023-06-22T03:37:30;10.27;;;9.77;;
17449;SDS011;8842;51.244;7.102;2023-06-22T03:42:34;9.90;;;9.40;;
17449;SDS011;8842;51.244;7.102;2023-06-22T03:47:45;10.50;;;9.90;;
17449;SDS011;8842;51.244;7.102;2023-06-22T03:52:50;10.23;;;9.67;;
17449;SDS011;8842;51.244;7.102;2023-06-22T03:58:01;10.10;;;9.60;;
17449;SDS011;8842;51.244;7.102;2023-06-22T04:03:07;10.10;;;9.60;;
17449;SDS011;8842;51.244;7.102;2023-06-22T04:08:19;10.87;;;10.27;;
17449;SDS011;8842;51.244;7.102;2023-06-22T04:13:23;10.60;;;9.90;;
17449;SDS011;8842;51.244;7.102;2023-06-22T04:18:35;10.30;;;9.77;;
17449;SDS011;8842;51.244;7.102;2023-06-22T04:28:50;11.00;;;10.37;;
17449;SDS011;8842;51.244;7.102;2023-06-22T04:33:56;10.30;;;9.70;;
17449;SDS011;8842;51.244;7.102;2023-06-22T04:39:08;10.13;;;9.63;;
17449;SDS011;8842;51.244;7.102;2023-06-22T04:44:13;10.60;;;10.00;;
17449;SDS011;8842;51.244;7.102;2023-06-22T04:49:22;10.80;;;10.20;;
17449;SDS011;8842;51.244;7.102;2023-06-22T04:54:34;10.70;;;10.10;;
17449;SDS011;8842;51.244;7.102;2023-06-22T04:59:40;11.30;;;10.70;;
17449;SDS011;8842;51.244;7.102;2023-06-22T05:04:52;11.40;;;10.80;;
17449;SDS011;8842;51.244;7.102;2023-06-22T05:09:57;12.30;;;11.40;;
17449;SDS011;8842;51.244;7.102;2023-06-22T05:15:23;12.30;;;11.60;;
17449;SDS011;8842;51.244;7.102;2023-06-22T05:20:29;11.60;;;10.90;;
17449;SDS011;8842;51.244;7.102;2023-06-22T05:25:41;12.13;;;11.27;;
17449;SDS011;8842;51.244;7.102;2023-06-22T05:35:56;11.37;;;10.67;;
17449;SDS011;8842;51.244;7.102;2023-06-22T05:41:00;10.50;;;9.90;;
17449;SDS011;8842;51.244;7.102;2023-06-22T05:46:12;10.37;;;9.67;;
17449;SDS011;8842;51.244;7.102;2023-06-22T05:51:16;9.97;;;9.47;;
17449;SDS011;8842;51.244;7.102;2023-06-22T05:56:20;10.85;;;10.25;;
17449;SDS011;8842;51.244;7.102;2023-06-22T06:01:24;10.13;;;9.53;;
17449;SDS011;8842;51.244;7.102;2023-06-22T06:06:28;10.58;;;9.93;;
17449;SDS011;8842;51.244;7.102;2023-06-22T06:11:40;11.30;;;10.60;;
17449;SDS011;8842;51.244;7.102;2023-06-22T06:16:45;10.13;;;9.63;;
17449;SDS011;8842;51.244;7.102;2023-06-22T06:21:56;11.00;;;10.30;;
17449;SDS011;8842;51.244;7.102;2023-06-22T06:27:00;11.70;;;10.80;;
17449;SDS011;8842;51.244;7.102;2023-06-22T06:32:08;11.20;;;10.60;;
17449;SDS011;8842;51.244;7.102;2023-06-22T06:37:12;11.30;;;10.70;;
17449;SDS011;8842;51.244;7.102;2023-06-22T06:42:24;11.10;;;10.50;;
17449;SDS011;8842;51.244;7.102;2023-06-22T06:47:35;11.67;;;10.97;;
17449;SDS011;8842;51.244;7.102;2023-06-22T06:52:39;11.23;;;10.63;;
17449;SDS011;8842;51.244;7.102;2023-06-22T06:57:44;14.13;;;13.33;;
17449;SDS011;8842;51.244;7.102;2023-06-22T07:02:58;15.10;;;14.30;;
17449;SDS011;8842;51.244;7.102;2023-06-22T07:08:02;16.40;;;15.50;;
17449;SDS011;8842;51.244;7.102;2023-06-22T07:13:21;20.87;;;16.37;;
17449;SDS011;8842;51.244;7.102;2023-06-22T07:18:25;15.80;;;15.00;;
17449;SDS011;8842;51.244;7.102;2023-06-22T07:23:29;16.70;;;15.70;;
17449;SDS011;8842;51.244;7.102;2023-06-22T07:28:49;15.40;;;14.60;;
17449;SDS011;8842;51.244;7.102;2023-06-22T07:33:53;16.40;;;15.50;;
17449;SDS011;8842;51.244;7.102;2023-06-22T07:38:57;15.27;;;14.47;;
17449;SDS011;8842;51.244;7.102;2023-06-22T07:44:02;14.87;;;14.10;;
17449;SDS011;8842;51.244;7.102;2023-06-22T07:49:14;14.33;;;13.63;;
17449;SDS011;8842;51.244;7.102;2023-06-22T07:54:18;14.43;;;13.73;;
17449;SDS011;8842;51.244;7.102;2023-06-22T07:59:22;14.67;;;13.90;;
17449;SDS011;8842;51.244;7.102;2023-06-22T08:04:34;13.60;;;12.90;;
17449;SDS011;8842;51.244;7.102;2023-06-22T08:09:38;15.00;;;14.10;;
17449;SDS011;8842;51.244;7.102;2023-06-22T08:14:52;15.17;;;14.37;;
17449;SDS011;8842;51.244;7.102;2023-06-22T08:19:56;15.00;;;14.20;;
17449;SDS011;8842;51.244;7.102;2023-06-22T08:25:10;14.80;;;14.00;;
17449;SDS011;8842;51.244;7.102;2023-06-22T08:30:14;13.80;;;13.10;;
17449;SDS011;8842;51.244;7.102;2023-06-22T08:35:26;15.10;;;14.30;;
17449;SDS011;8842;51.244;7.102;2023-06-22T08:40:30;15.20;;;14.40;;
17449;SDS011;8842;51.244;7.102;2023-06-22T08:45:34;14.75;;;13.98;;
17449;SDS011;8842;51.244;7.102;2023-06-22T08:50:46;15.17;;;14.33;;
17449;SDS011;8842;51.244;7.102;2023-06-22T08:55:50;14.10;;;13.40;;
17449;SDS011;8842;51.244;7.102;2023-06-22T09:01:02;13.88;;;13.18;;
17449;SDS011;8842;51.244;7.102;2023-06-22T09:06:07;14.95;;;14.15;;
17449;SDS011;8842;51.244;7.102;2023-06-22T09:11:19;15.30;;;14.40;;
17449;SDS011;8842;51.244;7.102;2023-06-22T09:16:23;14.75;;;13.95;;
17449;SDS011;8842;51.244;7.102;2023-06-22T09:21:27;14.13;;;13.43;;
17449;SDS011;8842;51.244;7.102;2023-06-22T09:26:32;14.55;;;13.75;;
17449;SDS011;8842;51.244;7.102;2023-06-22T09:31:46;12.93;;;12.23;;
17449;SDS011;8842;51.244;7.102;2023-06-22T09:36:50;11.38;;;10.78;;
17449;SDS011;8842;51.244;7.102;2023-06-22T09:42:02;10.28;;;9.78;;
17449;SDS011;8842;51.244;7.102;2023-06-22T09:47:11;10.70;;;10.13;;
17449;SDS011;8842;51.244;7.102;2023-06-22T09:58:58;10.30;;;9.80;;
17449;SDS011;8842;51.244;7.102;2023-06-22T10:04:09;9.70;;;9.20;;
17449;SDS011;8842;51.244;7.102;2023-06-22T10:09:13;10.05;;;9.55;;
17449;SDS011;8842;51.244;7.102;2023-06-22T10:14:25;9.90;;;9.30;;
17449;SDS011;8842;51.244;7.102;2023-06-22T10:19:31;10.15;;;9.55;;
17449;SDS011;8842;51.244;7.102;2023-06-22T10:24:43;10.58;;;9.98;;
17449;SDS011;8842;51.244;7.102;2023-06-22T10:29:48;9.78;;;9.28;;
17449;SDS011;8842;51.244;7.102;2023-06-22T10:34:52;10.00;;;9.50;;
17449;SDS011;8842;51.244;7.102;2023-06-22T10:45:09;9.75;;;9.23;;
17449;SDS011;8842;51.244;7.102;2023-06-22T10:50:13;8.85;;;8.35;;
17449;SDS011;8842;51.244;7.102;2023-06-22T10:55:25;9.28;;;8.78;;
17449;SDS011;8842;51.244;7.102;2023-06-22T11:00:29;12.28;;;11.57;;
17449;SDS011;8842;51.244;7.102;2023-06-22T11:05:47;14.13;;;13.43;;
17449;SDS011;8842;51.244;7.102;2023-06-22T11:10:59;16.00;;;15.20;;
17449;SDS011;8842;51.244;7.102;2023-06-22T11:16:03;16.00;;;15.20;;
17449;SDS011;8842;51.244;7.102;2023-06-22T11:21:07;15.68;;;14.87;;
17449;SDS011;8842;51.244;7.102;2023-06-22T11:26:11;15.63;;;14.80;;
17449;SDS011;8842;51.244;7.102;2023-06-22T11:31:15;15.90;;;15.10;;
17449;SDS011;8842;51.244;7.102;2023-06-22T11:36:29;15.78;;;14.98;;
17449;SDS011;8842;51.244;7.102;2023-06-22T11:41:35;14.73;;;14.03;;
17449;SDS011;8842;51.244;7.102;2023-06-22T11:46:50;14.80;;;14.10;;
17449;SDS011;8842;51.244;7.102;2023-06-22T11:51:54;14.63;;;13.93;;
17449;SDS011;8842;51.244;7.102;2023-06-22T11:57:08;14.60;;;13.90;;
17449;SDS011;8842;51.244;7.102;2023-06-22T12:02:12;15.45;;;14.65;;
17449;SDS011;8842;51.244;7.102;2023-06-22T12:07:26;15.30;;;14.50;;
17449;SDS011;8842;51.244;7.102;2023-06-22T12:12:30;14.63;;;13.93;;
17449;SDS011;8842;51.244;7.102;2023-06-22T12:17:44;15.50;;;14.60;;
17449;SDS011;8842;51.244;7.102;2023-06-22T12:22:49;14.80;;;14.00;;
17449;SDS011;8842;51.244;7.102;2023-06-22T12:27:54;15.60;;;14.80;;
17449;SDS011;8842;51.244;7.102;2023-06-22T12:33:06;15.13;;;14.33;;
17449;SDS011;8842;51.244;7.102;2023-06-22T12:38:10;14.23;;;13.53;;
17449;SDS011;8842;51.244;7.102;2023-06-22T12:43:24;14.80;;;14.00;;
17449;SDS011;8842;51.244;7.102;2023-06-22T12:48:28;15.13;;;14.33;;
17449;SDS011;8842;51.244;7.102;2023-06-22T12:53:32;15.63;;;14.73;;
17449;SDS011;8842;51.244;7.102;2023-06-22T12:58:36;14.55;;;13.75;;
17449;SDS011;8842;51.244;7.102;2023-06-22T13:03:48;14.47;;;13.78;;
17449;SDS011;8842;51.244;7.102;2023-06-22T13:08:52;15.08;;;14.28;;
17449;SDS011;8842;51.244;7.102;2023-06-22T13:13:56;15.75;;;14.90;;
17449;SDS011;8842;51.244;7.102;2023-06-22T13:19:08;14.95;;;14.15;;
17449;SDS011;8842;51.244;7.102;2023-06-22T13:24:12;15.68;;;14.87;;
17449;SDS011;8842;51.244;7.102;2023-06-22T13:29:24;15.50;;;14.70;;
17449;SDS011;8842;51.244;7.102;2023-06-22T13:34:28;15.23;;;14.43;;
17449;SDS011;8842;51.244;7.102;2023-06-22T13:39:39;15.08;;;14.38;;
17449;SDS011;8842;51.244;7.102;2023-06-22T13:44:51;13.50;;;12.80;;
17449;SDS011;8842;51.244;7.102;2023-06-22T13:50:03;15.38;;;14.58;;
17449;SDS011;8842;51.244;7.102;2023-06-22T13:55:09;13.98;;;13.28;;
17449;SDS011;8842;51.244;7.102;2023-06-22T14:00:21;14.60;;;13.68;;
17449;SDS011;8842;51.244;7.102;2023-06-22T14:05:26;14.50;;;13.80;;
17449;SDS011;8842;51.244;7.102;2023-06-22T14:10:30;14.50;;;13.80;;
17449;SDS011;8842;51.244;7.102;2023-06-22T14:15:41;14.70;;;13.90;;
17449;SDS011;8842;51.244;7.102;2023-06-22T14:20:45;14.65;;;13.85;;
17449;SDS011;8842;51.244;7.102;2023-06-22T14:25:57;14.80;;;14.00;;
17449;SDS011;8842;51.244;7.102;2023-06-22T14:31:01;15.05;;;14.25;;
17449;SDS011;8842;51.244;7.102;2023-06-22T14:36:05;14.70;;;13.90;;
17449;SDS011;8842;51.244;7.102;2023-06-22T14:41:09;14.80;;;14.00;;
17449;SDS011;8842;51.244;7.102;2023-06-22T14:46:21;14.45;;;13.70;;
17449;SDS011;8842;51.244;7.102;2023-06-22T14:51:25;13.95;;;13.22;;
17449;SDS011;8842;51.244;7.102;2023-06-22T14:56:37;12.82;;;12.13;;
17449;SDS011;8842;51.244;7.102;2023-06-22T15:01:41;12.50;;;11.90;;
17449;SDS011;8842;51.244;7.102;2023-06-22T15:06:45;11.18;;;10.58;;
17449;SDS011;8842;51.244;7.102;2023-06-22T15:17:03;9.08;;;8.58;;
17449;SDS011;8842;51.244;7.102;2023-06-22T15:22:07;9.78;;;9.28;;
17449;SDS011;8842;51.244;7.102;2023-06-22T15:27:11;10.90;;;10.30;;
17449;SDS011;8842;51.244;7.102;2023-06-22T15:32:16;14.70;;;13.90;;
17449;SDS011;8842;51.244;7.102;2023-06-22T15:37:30;16.20;;;15.30;;
17449;SDS011;8842;51.244;7.102;2023-06-22T15:42:35;15.18;;;14.38;;
17449;SDS011;8842;51.244;7.102;2023-06-22T15:47:49;15.20;;;14.40;;
17449;SDS011;8842;51.244;7.102;2023-06-22T15:52:53;15.73;;;14.93;;
17449;SDS011;8842;51.244;7.102;2023-06-22T15:57:57;15.60;;;14.80;;
17449;SDS011;8842;51.244;7.102;2023-06-22T16:03:11;15.60;;;14.80;;
17449;SDS011;8842;51.244;7.102;2023-06-22T16:13:26;15.20;;;14.40;;
17449;SDS011;8842;51.244;7.102;2023-06-22T16:18:31;16.03;;;15.23;;
17449;SDS011;8842;51.244;7.102;2023-06-22T16:23:35;15.70;;;14.90;;
17449;SDS011;8842;51.244;7.102;2023-06-22T16:28:47;15.50;;;14.50;;
17449;SDS011;8842;51.244;7.102;2023-06-22T16:33:51;15.67;;;14.80;;
17449;SDS011;8842;51.244;7.102;2023-06-22T16:44:08;15.27;;;14.37;;
17449;SDS011;8842;51.244;7.102;2023-06-22T16:49:12;14.93;;;14.13;;
17449;SDS011;8842;51.244;7.102;2023-06-22T16:54:23;14.77;;;13.97;;
17449;SDS011;8842;51.244;7.102;2023-06-22T16:59:27;14.60;;;13.80;;
17449;SDS011;8842;51.244;7.102;2023-06-22T17:04:31;14.93;;;14.13;;
17449;SDS011;8842;51.244;7.102;2023-06-22T17:09:45;14.97;;;14.17;;
17449;SDS011;8842;51.244;7.102;2023-06-22T17:14:51;15.50;;;14.70;;
17449;SDS011;8842;51.244;7.102;2023-06-22T17:20:04;15.70;;;14.87;;
17449;SDS011;8842;51.244;7.102;2023-06-22T17:25:10;15.80;;;14.80;;
17449;SDS011;8842;51.244;7.102;2023-06-22T17:30:16;14.83;;;14.03;;
17449;SDS011;8842;51.244;7.102;2023-06-22T17:35:29;15.17;;;14.37;;
17449;SDS011;8842;51.244;7.102;2023-06-22T17:40:34;16.10;;;15.20;;
17449;SDS011;8842;51.244;7.102;2023-06-22T17:45:40;15.37;;;14.57;;
17449;SDS011;8842;51.244;7.102;2023-06-22T17:50:52;15.23;;;14.43;;
17449;SDS011;8842;51.244;7.102;2023-06-22T17:55:59;15.20;;;14.30;;
17449;SDS011;8842;51.244;7.102;2023-06-22T18:01:05;15.40;;;14.60;;
17449;SDS011;8842;51.244;7.102;2023-06-22T18:06:09;15.70;;;14.80;;
17449;SDS011;8842;51.244;7.102;2023-06-22T18:11:13;15.90;;;15.00;;
17449;SDS011;8842;51.244;7.102;2023-06-22T18:16:18;15.58;;;14.73;;
17449;SDS011;8842;51.244;7.102;2023-06-22T18:21:31;15.10;;;14.30;;
17449;SDS011;8842;51.244;7.102;2023-06-22T18:26:35;15.33;;;14.30;;
17449;SDS011;8842;51.244;7.102;2023-06-22T18:31:50;14.90;;;14.10;;
17449;SDS011;8842;51.244;7.102;2023-06-22T18:36:54;14.10;;;13.40;;
17449;SDS011;8842;51.244;7.102;2023-06-22T18:42:01;14.70;;;13.90;;
17449;SDS011;8842;51.244;7.102;2023-06-22T18:47:07;14.40;;;13.60;;
17449;SDS011;8842;51.244;7.102;2023-06-22T18:52:24;14.90;;;14.10;;
17449;SDS011;8842;51.244;7.102;2023-06-22T18:57:29;13.97;;;13.27;;
17449;SDS011;8842;51.244;7.102;2023-06-22T19:02:41;15.20;;;14.30;;
17449;SDS011;8842;51.244;7.102;2023-06-22T19:07:58;13.77;;;13.07;;
17449;SDS011;8842;51.244;7.102;2023-06-22T19:13:26;14.03;;;13.30;;
17449;SDS011;8842;51.244;7.102;2023-06-22T19:18:32;13.60;;;12.90;;
17449;SDS011;8842;51.244;7.102;2023-06-22T19:23:44;14.50;;;13.70;;
17449;SDS011;8842;51.244;7.102;2023-06-22T19:28:49;14.27;;;13.47;;
17449;SDS011;8842;51.244;7.102;2023-06-22T19:34:01;13.33;;;12.63;;
17449;SDS011;8842;51.244;7.102;2023-06-22T19:39:07;13.70;;;12.90;;
17449;SDS011;8842;51.244;7.102;2023-06-22T19:44:25;14.50;;;13.70;;
17449;SDS011;8842;51.244;7.102;2023-06-22T19:49:33;13.87;;;13.17;;
17449;SDS011;8842;51.244;7.102;2023-06-22T19:54:45;13.50;;;12.80;;
17449;SDS011;8842;51.244;7.102;2023-06-22T19:59:52;14.10;;;13.40;;
17449;SDS011;8842;51.244;7.102;2023-06-22T20:04:56;14.20;;;13.50;;
17449;SDS011;8842;51.244;7.102;2023-06-22T20:15:34;13.90;;;13.20;;
17449;SDS011;8842;51.244;7.102;2023-06-22T20:20:43;13.50;;;12.80;;
17449;SDS011;8842;51.244;7.102;2023-06-22T20:25:49;13.70;;;13.00;;
17449;SDS011;8842;51.244;7.102;2023-06-22T20:31:04;14.40;;;13.70;;
17449;SDS011;8842;51.244;7.102;2023-06-22T20:41:21;14.60;;;13.80;;
17449;SDS011;8842;51.244;7.102;2023-06-22T20:46:27;14.20;;;13.50;;
17449;SDS011;8842;51.244;7.102;2023-06-22T20:51:42;14.10;;;13.40;;
17449;SDS011;8842;51.244;7.102;2023-06-22T20:56:46;14.10;;;13.40;;
17449;SDS011;8842;51.244;7.102;2023-06-22T21:01:50;14.40;;;13.60;;
17449;SDS011;8842;51.244;7.102;2023-06-22T21:07:05;14.50;;;13.70;;
17449;SDS011;8842;51.244;7.102;2023-06-22T21:12:10;14.10;;;13.40;;
17449;SDS011;8842;51.244;7.102;2023-06-22T21:17:24;14.47;;;13.70;;
17449;SDS011;8842;51.244;7.102;2023-06-22T21:27:42;13.53;;;12.83;;
17449;SDS011;8842;51.244;7.102;2023-06-22T21:32:46;13.70;;;13.00;;
17449;SDS011;8842;51.244;7.102;2023-06-22T21:38:00;13.37;;;12.67;;
17449;SDS011;8842;51.244;7.102;2023-06-22T21:43:05;13.63;;;12.93;;
17449;SDS011;8842;51.244;7.102;2023-06-22T21:48:09;13.43;;;12.73;;
17449;SDS011;8842;51.244;7.102;2023-06-22T21:53:23;13.87;;;13.17;;
17449;SDS011;8842;51.244;7.102;2023-06-22T21:58:29;13.73;;;13.03;;
17449;SDS011;8842;51.244;7.102;2023-06-22T22:03:34;12.90;;;12.20;;
17449;SDS011;8842;51.244;7.102;2023-06-22T22:08:39;13.13;;;12.43;;
17449;SDS011;8842;51.244;7.102;2023-06-22T22:13:50;13.70;;;13.00;;
17449;SDS011;8842;51.244;7.102;2023-06-22T22:18:55;13.60;;;12.90;;
17449;SDS011;8842;51.244;7.102;2023-06-22T22:23:59;13.67;;;12.97;;
17449;SDS011;8842;51.244;7.102;2023-06-22T22:29:13;13.80;;;13.10;;
17449;SDS011;8842;51.244;7.102;2023-06-22T22:39:30;13.37;;;12.67;;
17449;SDS011;8842;51.244;7.102;2023-06-22T22:44:36;13.73;;;13.03;;
17449;SDS011;8842;51.244;7.102;2023-06-22T22:49:40;13.70;;;13.00;;
17449;SDS011;8842;51.244;7.102;2023-06-22T22:54:53;14.20;;;13.50;;
17449;SDS011;8842;51.244;7.102;2023-06-22T22:59:58;13.90;;;13.20;;
17449;SDS011;8842;51.244;7.102;2023-06-22T23:05:12;13.80;;;13.10;;
17449;SDS011;8842;51.244;7.102;2023-06-22T23:10:17;14.00;;;13.20;;
17449;SDS011;8842;51.244;7.102;2023-06-22T23:15:22;13.60;;;12.90;;
17449;SDS011;8842;51.244;7.102;2023-06-22T23:20:35;13.37;;;12.67;;
17449;SDS011;8842;51.244;7.102;2023-06-22T23:25:39;13.43;;;12.73;;
17449;SDS011;8842;51.244;7.102;2023-06-22T23:30:51;13.27;;;12.57;;
17449;SDS011;8842;51.244;7.102;2023-06-22T23:35:55;13.80;;;13.10;;
17449;SDS011;8842;51.244;7.102;2023-06-22T23:41:02;13.87;;;13.17;;
17449;SDS011;8842;51.244;7.102;2023-06-22T23:46:06;13.90;;;13.20;;
17449;SDS011;8842;51.244;7.102;2023-06-22T23:51:10;14.37;;;13.67;;
17449;SDS011;8842;51.244;7.102;2023-06-22T23:56:22;13.50;;;12.80;;
